createdAt,value
2023-04-15T00:00:10.846Z,74.39
2023-04-15T00:03:02.532Z,74.72
2023-04-15T00:05:31.792Z,74.63
2023-04-15T00:08:01.590Z,75.06
2023-04-15T00:10:29.654Z,75.20
2023-04-15T00:12:57.737Z,75.41
2023-04-15T00:15:25.913Z,75.70
2023-04-15T00:17:54.242Z,75.95
2023-04-15T00:20:22.782Z,76.20
2023-04-15T00:22:50.833Z,76.27
2023-04-15T00:25:18.913Z,76.04
2023-04-15T00:27:46.977Z,75.97
2023-04-15T00:30:16.284Z,76.12
2023-04-15T00:32:44.879Z,76.31
2023-04-15T00:35:13.039Z,76.39
2023-04-15T00:37:41.217Z,76.30
2023-04-15T00:40:14.019Z,76.33
2023-04-15T00:42:42.168Z,76.44
2023-04-15T00:45:11.258Z,76.10
2023-04-15T00:47:42.431Z,75.86
2023-04-15T00:50:12.790Z,75.15
2023-04-15T00:52:41.732Z,74.92
2023-04-15T00:55:10.209Z,74.55
2023-04-15T00:57:40.016Z,74.14
2023-04-15T01:00:09.504Z,74.47
2023-04-15T01:02:39.335Z,74.77
2023-04-15T01:05:08.678Z,74.13
2023-04-15T01:07:36.966Z,75.10
2023-04-15T01:10:05.632Z,74.94
2023-04-15T01:12:34.494Z,75.68
2023-04-15T01:15:02.763Z,77.23
2023-04-15T01:17:31.075Z,77.47
2023-04-15T01:20:00.066Z,77.57
2023-04-15T01:22:29.032Z,77.54
2023-04-15T01:25:10.720Z,78.04
2023-04-15T01:27:42.659Z,77.90
2023-04-15T01:30:11.785Z,77.43
2023-04-15T01:32:39.893Z,76.29
2023-04-15T01:35:09.037Z,76.45
2023-04-15T01:37:37.219Z,77.27
2023-04-15T01:40:06.165Z,76.99
2023-04-15T01:42:36.682Z,76.62
2023-04-15T01:45:05.503Z,76.76
2023-04-15T01:47:33.855Z,76.49
2023-04-15T01:50:02.096Z,76.58
2023-04-15T01:52:30.678Z,77.24
2023-04-15T01:54:58.851Z,77.30
2023-04-15T01:57:27.229Z,77.54
2023-04-15T01:59:55.232Z,77.26
2023-04-15T02:02:23.596Z,77.35
2023-04-15T02:04:51.851Z,77.50
2023-04-15T02:07:19.924Z,77.69
2023-04-15T02:09:47.914Z,77.53
2023-04-15T02:12:15.963Z,77.02
2023-04-15T02:14:44.051Z,77.12
2023-04-15T02:17:12.214Z,77.34
2023-04-15T02:19:41.296Z,77.11
2023-04-15T02:22:09.467Z,77.35
2023-04-15T02:24:37.386Z,77.49
2023-04-15T02:27:05.415Z,76.81
2023-04-15T02:29:33.422Z,76.85
2023-04-15T02:32:02.236Z,77.10
2023-04-15T02:34:31.681Z,76.79
2023-04-15T02:36:59.958Z,76.48
2023-04-15T02:39:28.244Z,76.38
2023-04-15T02:41:57.030Z,76.14
2023-04-15T02:44:25.221Z,76.15
2023-04-15T02:46:55.225Z,76.45
2023-04-15T02:49:23.417Z,76.94
2023-04-15T02:51:52.380Z,76.91
2023-04-15T02:54:22.919Z,77.53
2023-04-15T02:56:51.197Z,78.03
2023-04-15T02:59:19.242Z,77.69
2023-04-15T03:01:47.495Z,76.99
2023-04-15T03:04:15.879Z,76.89
2023-04-15T03:06:44.093Z,76.87
2023-04-15T03:09:12.669Z,77.38
2023-04-15T03:11:42.237Z,77.22
2023-04-15T03:14:11.389Z,77.07
2023-04-15T03:16:42.520Z,77.53
2023-04-15T03:19:10.921Z,77.57
2023-04-15T03:21:40.115Z,77.82
2023-04-15T03:24:08.275Z,77.84
2023-04-15T03:26:37.159Z,77.94
2023-04-15T03:29:11.373Z,77.83
2023-04-15T03:31:42.210Z,78.42
2023-04-15T03:34:10.190Z,78.03
2023-04-15T03:36:38.676Z,78.13
2023-04-15T03:39:06.675Z,77.94
2023-04-15T03:41:34.706Z,79.23
2023-04-15T03:44:02.652Z,79.55
2023-04-15T03:46:30.986Z,79.44
2023-04-15T03:48:59.540Z,79.27
2023-04-15T03:51:27.808Z,79.53
2023-04-15T03:53:56.292Z,79.99
2023-04-15T03:56:25.378Z,79.15
2023-04-15T03:58:53.363Z,79.76
2023-04-15T04:01:21.529Z,79.50
2023-04-15T04:03:50.109Z,80.29
2023-04-15T04:06:18.600Z,80.38
2023-04-15T04:08:46.773Z,80.44
2023-04-15T04:11:14.840Z,80.24
2023-04-15T04:13:42.956Z,79.70
2023-04-15T04:16:11.317Z,79.39
2023-04-15T04:18:39.415Z,79.40
2023-04-15T04:21:07.645Z,78.92
2023-04-15T04:23:35.825Z,78.36
2023-04-15T04:26:03.989Z,77.90
2023-04-15T04:28:32.361Z,77.63
2023-04-15T04:31:00.451Z,77.42
2023-04-15T04:33:28.474Z,77.30
2023-04-15T04:35:56.787Z,77.63
2023-04-15T04:38:25.048Z,77.97
2023-04-15T04:40:53.136Z,77.84
2023-04-15T04:43:21.309Z,78.01
2023-04-15T04:45:49.366Z,78.31
2023-04-15T04:48:17.656Z,78.08
2023-04-15T04:50:47.163Z,78.19
2023-04-15T04:53:15.447Z,78.29
2023-04-15T04:55:43.510Z,78.06
2023-04-15T04:58:11.782Z,77.96
2023-04-15T05:00:40.885Z,77.96
2023-04-15T05:03:09.503Z,77.89
2023-04-15T05:05:39.706Z,77.77
2023-04-15T05:08:08.173Z,77.88
2023-04-15T05:10:36.590Z,77.90
2023-04-15T05:13:04.726Z,77.98
2023-04-15T05:15:33.646Z,77.79
2023-04-15T05:18:01.865Z,77.70
2023-04-15T05:20:30.147Z,77.67
2023-04-15T05:22:58.240Z,77.65
2023-04-15T05:25:26.310Z,77.28
2023-04-15T05:27:54.382Z,76.74
2023-04-15T05:30:22.562Z,76.35
2023-04-15T05:32:51.163Z,76.61
2023-04-15T05:35:19.231Z,76.36
2023-04-15T05:37:47.494Z,76.24
2023-04-15T05:40:15.794Z,76.37
2023-04-15T05:42:43.836Z,76.10
2023-04-15T05:45:12.517Z,76.44
2023-04-15T05:47:40.505Z,76.40
2023-04-15T05:50:09.477Z,76.50
2023-04-15T05:52:37.669Z,76.12
2023-04-15T05:55:06.647Z,76.47
2023-04-15T05:57:34.718Z,76.36
2023-04-15T06:00:02.832Z,76.10
2023-04-15T06:02:38.024Z,75.95
2023-04-15T06:05:09.888Z,75.51
2023-04-15T06:07:38.991Z,75.60
2023-04-15T06:10:08.035Z,75.33
2023-04-15T06:12:36.359Z,75.13
2023-04-15T06:15:06.763Z,75.34
2023-04-15T06:17:34.906Z,75.24
2023-04-15T06:20:03.750Z,75.07
2023-04-15T06:22:31.923Z,74.87
2023-04-15T06:25:00.213Z,74.85
2023-04-15T06:27:28.379Z,74.67
2023-04-15T06:29:56.708Z,74.48
2023-04-15T06:32:24.858Z,73.99
2023-04-15T06:34:52.750Z,73.73
2023-04-15T06:37:20.869Z,73.79
2023-04-15T06:39:48.936Z,72.85
2023-04-15T06:42:17.122Z,72.15
2023-04-15T06:44:45.256Z,72.04
2023-04-15T06:47:14.813Z,71.18
2023-04-15T06:49:43.421Z,70.86
2023-04-15T06:52:11.658Z,70.70
2023-04-15T06:54:39.804Z,70.72
2023-04-15T06:57:09.464Z,69.98
2023-04-15T06:59:37.494Z,69.11
2023-04-15T07:02:05.790Z,69.11
2023-04-15T07:04:34.061Z,67.88
2023-04-15T07:07:02.704Z,68.01
2023-04-15T07:09:30.809Z,68.33
2023-04-15T07:11:58.885Z,67.61
2023-04-15T07:14:28.080Z,66.89
2023-04-15T07:16:56.608Z,66.66
2023-04-15T07:19:24.933Z,66.97
2023-04-15T07:21:53.214Z,67.11
2023-04-15T07:24:21.388Z,67.10
2023-04-15T07:26:49.783Z,67.14
2023-04-15T07:29:17.954Z,66.85
2023-04-15T07:31:45.895Z,66.59
2023-04-15T07:34:13.993Z,65.87
2023-04-15T07:36:42.676Z,66.11
2023-04-15T07:39:11.160Z,65.52
2023-04-15T07:41:39.239Z,65.54
2023-04-15T07:44:07.232Z,65.65
2023-04-15T07:46:35.567Z,65.13
2023-04-15T07:49:04.398Z,64.94
2023-04-15T07:51:33.156Z,62.88
2023-04-15T07:54:01.226Z,63.52
2023-04-15T07:56:29.491Z,63.56
2023-04-15T07:58:57.479Z,61.71
2023-04-15T08:01:25.536Z,61.03
2023-04-15T08:03:53.896Z,61.18
2023-04-15T08:06:22.178Z,60.86
2023-04-15T08:08:50.474Z,60.35
2023-04-15T08:11:18.652Z,60.33
2023-04-15T08:13:47.411Z,60.33
2023-04-15T08:16:23.665Z,59.73
2023-04-15T08:18:54.218Z,59.34
2023-04-15T08:21:22.973Z,57.18
2023-04-15T08:23:52.684Z,57.23
2023-04-15T08:26:21.814Z,57.04
2023-04-15T08:28:50.502Z,56.67
2023-04-15T08:31:19.431Z,54.16
2023-04-15T08:33:47.468Z,52.42
2023-04-15T08:36:15.550Z,51.12
2023-04-15T08:38:44.751Z,48.78
2023-04-15T08:41:25.668Z,50.16
2023-04-15T08:44:04.335Z,51.02
2023-04-15T08:46:34.973Z,50.71
2023-04-15T08:49:05.421Z,51.03
2023-04-15T08:51:34.293Z,51.11
2023-04-15T08:54:02.968Z,50.94
2023-04-15T08:56:36.040Z,50.42
2023-04-15T08:59:05.501Z,50.34
2023-04-15T09:01:33.837Z,50.50
2023-04-15T09:04:03.564Z,49.67
2023-04-15T09:06:31.626Z,48.51
2023-04-15T09:09:00.147Z,49.29
2023-04-15T09:11:31.538Z,48.86
2023-04-15T09:13:59.629Z,49.41
2023-04-15T09:16:28.633Z,48.94
2023-04-15T09:18:56.689Z,47.73
2023-04-15T09:21:25.069Z,47.14
2023-04-15T09:24:01.973Z,47.42
2023-04-15T09:26:40.520Z,47.69
2023-04-15T09:29:13.747Z,46.44
2023-04-15T09:31:43.610Z,46.68
2023-04-15T09:34:11.971Z,45.90
2023-04-15T09:36:51.990Z,46.15
2023-04-15T09:39:20.786Z,45.88
2023-04-15T09:42:09.234Z,46.37
2023-04-15T09:44:37.813Z,46.50
2023-04-15T09:47:06.403Z,46.75
2023-04-15T09:49:34.598Z,46.70
2023-04-15T09:52:05.795Z,46.38
2023-04-15T09:54:36.654Z,47.83
2023-04-15T09:57:10.896Z,49.90
2023-04-15T09:59:39.048Z,51.59
2023-04-15T10:02:09.984Z,51.24
2023-04-15T10:04:41.728Z,51.83
2023-04-15T10:07:13.013Z,52.02
2023-04-15T10:09:41.885Z,53.81
2023-04-15T10:12:10.474Z,53.64
2023-04-15T10:14:39.131Z,53.20
2023-04-15T10:17:11.169Z,49.53
2023-04-15T10:19:39.293Z,47.80
2023-04-15T10:22:08.322Z,48.51
2023-04-15T10:24:39.116Z,47.05
2023-04-15T10:27:07.993Z,46.19
2023-04-15T10:29:36.702Z,48.21
2023-04-15T10:32:05.626Z,45.76
2023-04-15T10:34:34.891Z,44.26
2023-04-15T10:37:06.950Z,43.47
2023-04-15T10:39:34.977Z,43.53
2023-04-15T10:42:18.238Z,42.99
2023-04-15T10:44:53.496Z,42.12
2023-04-15T10:47:22.403Z,42.64
2023-04-15T10:49:53.201Z,43.57
2023-04-15T10:52:28.720Z,43.02
2023-04-15T10:55:24.207Z,42.69
2023-04-15T10:57:54.716Z,43.41
2023-04-15T11:00:26.486Z,42.30
2023-04-15T11:02:57.121Z,41.14
2023-04-15T11:05:53.664Z,36.13
2023-04-15T11:08:53.655Z,35.13
2023-04-15T11:11:21.934Z,36.00
2023-04-15T11:13:52.645Z,35.71
2023-04-15T11:16:21.696Z,35.20
2023-04-15T11:18:56.528Z,34.46
2023-04-15T11:21:26.856Z,35.20
2023-04-15T11:23:55.003Z,34.88
2023-04-15T11:26:27.422Z,34.59
2023-04-15T11:28:55.534Z,34.22
2023-04-15T11:31:28.740Z,34.76
2023-04-15T11:33:59.506Z,35.48
2023-04-15T11:36:29.583Z,34.87
2023-04-15T11:38:59.462Z,34.89
2023-04-15T11:41:27.680Z,34.22
2023-04-15T11:43:55.738Z,33.01
2023-04-15T11:46:31.318Z,32.86
2023-04-15T11:49:00.338Z,33.21
2023-04-15T11:51:33.293Z,33.60
2023-04-15T11:54:01.643Z,33.37
2023-04-15T11:56:30.078Z,33.16
2023-04-15T11:59:02.298Z,33.01
2023-04-15T12:01:40.010Z,32.46
2023-04-15T12:04:13.674Z,32.15
2023-04-15T12:06:42.315Z,31.61
2023-04-15T12:09:12.514Z,31.50
2023-04-15T12:11:57.580Z,31.72
2023-04-15T12:14:28.443Z,30.67
2023-04-15T12:17:05.019Z,30.57
2023-04-15T12:19:45.746Z,31.61
2023-04-15T12:22:16.442Z,31.72
2023-04-15T12:24:48.172Z,31.40
2023-04-15T12:27:17.731Z,31.00
2023-04-15T12:29:45.920Z,30.49
2023-04-15T12:32:16.360Z,31.00
2023-04-15T12:34:52.082Z,30.47
2023-04-15T12:37:21.191Z,29.99
2023-04-15T12:39:50.495Z,30.74
2023-04-15T12:42:18.980Z,30.85
2023-04-15T12:44:47.550Z,31.52
2023-04-15T12:47:15.930Z,32.19
2023-04-15T12:49:44.002Z,32.30
2023-04-15T12:52:11.980Z,31.96
2023-04-15T12:54:40.058Z,32.00
2023-04-15T12:57:08.436Z,31.59
2023-04-15T12:59:36.644Z,30.86
2023-04-15T13:02:05.134Z,31.19
2023-04-15T13:04:33.549Z,29.54
2023-04-15T13:07:02.873Z,29.22
2023-04-15T13:09:31.229Z,30.10
2023-04-15T13:11:59.543Z,30.17
2023-04-15T13:14:27.574Z,31.57
2023-04-15T13:16:55.673Z,32.35
2023-04-15T13:19:23.752Z,32.09
2023-04-15T13:21:51.832Z,32.64
2023-04-15T13:24:19.978Z,33.05
2023-04-15T13:26:50.140Z,32.40
2023-04-15T13:29:18.588Z,32.68
2023-04-15T13:31:46.659Z,32.30
2023-04-15T13:34:14.821Z,33.06
2023-04-15T13:36:42.904Z,34.09
2023-04-15T13:39:10.875Z,34.28
2023-04-15T13:41:38.939Z,34.40
2023-04-15T13:44:07.453Z,34.33
2023-04-15T13:46:35.921Z,33.15
2023-04-15T13:49:03.969Z,32.51
2023-04-15T13:51:33.067Z,33.03
2023-04-15T13:54:01.141Z,33.09
2023-04-15T13:56:29.821Z,32.97
2023-04-15T13:59:02.406Z,32.82
2023-04-15T14:01:30.682Z,32.88
2023-04-15T14:03:58.812Z,33.75
2023-04-15T14:06:28.250Z,35.17
2023-04-15T14:08:56.314Z,35.96
2023-04-15T14:11:24.592Z,36.87
2023-04-15T14:13:52.705Z,37.29
2023-04-15T14:16:21.072Z,37.68
2023-04-15T14:18:49.221Z,37.22
2023-04-15T14:21:17.302Z,37.63
2023-04-15T14:23:45.462Z,37.55
2023-04-15T14:26:14.278Z,37.81
2023-04-15T14:28:45.099Z,37.92
2023-04-15T14:31:14.464Z,36.54
2023-04-15T14:33:42.675Z,36.89
2023-04-15T14:36:11.146Z,36.06
2023-04-15T14:38:40.147Z,33.68
2023-04-15T14:41:09.527Z,32.28
2023-04-15T14:43:39.362Z,31.45
2023-04-15T14:46:08.689Z,31.29
2023-04-15T14:48:37.395Z,30.97
2023-04-15T14:51:06.016Z,29.95
2023-04-15T14:53:34.408Z,30.09
2023-04-15T14:56:02.376Z,30.37
2023-04-15T14:58:30.447Z,28.89
2023-04-15T15:00:59.036Z,28.85
2023-04-15T15:03:27.356Z,28.72
2023-04-15T15:05:55.684Z,29.54
2023-04-15T15:08:24.268Z,30.20
2023-04-15T15:10:52.344Z,30.67
2023-04-15T15:13:20.521Z,30.66
2023-04-15T15:15:51.690Z,30.98
2023-04-15T15:18:20.149Z,31.74
2023-04-15T15:20:48.249Z,31.81
2023-04-15T15:23:16.601Z,31.84
2023-04-15T15:25:47.399Z,32.20
2023-04-15T15:28:15.602Z,32.41
2023-04-15T15:30:43.673Z,32.47
2023-04-15T15:33:12.271Z,32.60
2023-04-15T15:35:41.042Z,32.65
2023-04-15T15:38:11.678Z,32.97
2023-04-15T15:40:39.863Z,33.11
2023-04-15T15:43:08.233Z,33.74
2023-04-15T15:45:36.308Z,33.99
2023-04-15T15:48:05.200Z,34.31
2023-04-15T15:50:34.696Z,34.34
2023-04-15T15:53:02.906Z,34.50
2023-04-15T15:55:31.559Z,34.75
2023-04-15T15:57:59.628Z,35.10
2023-04-15T16:00:27.801Z,35.22
2023-04-15T16:03:06.825Z,35.39
2023-04-15T16:05:36.645Z,35.63
2023-04-15T16:08:05.510Z,36.67
2023-04-15T16:10:33.917Z,37.85
2023-04-15T16:13:03.168Z,38.92
2023-04-15T16:15:31.499Z,39.58
2023-04-15T16:17:59.690Z,40.03
2023-04-15T16:20:29.090Z,39.42
2023-04-15T16:22:58.456Z,39.95
2023-04-15T16:25:26.549Z,39.86
2023-04-15T16:28:05.521Z,39.86
2023-04-15T16:30:38.033Z,41.51
2023-04-15T16:33:07.793Z,42.06
2023-04-15T16:35:36.271Z,42.55
2023-04-15T16:38:04.515Z,42.92
2023-04-15T16:40:33.204Z,42.93
2023-04-15T16:43:03.529Z,43.35
2023-04-15T16:45:31.721Z,43.55
2023-04-15T16:47:59.795Z,43.57
2023-04-15T16:50:28.059Z,43.10
2023-04-15T16:52:56.113Z,43.17
2023-04-15T16:55:24.219Z,43.59
2023-04-15T16:58:01.723Z,43.21
2023-04-15T17:00:33.126Z,42.65
2023-04-15T17:03:01.789Z,43.24
2023-04-15T17:05:33.670Z,43.95
2023-04-15T17:08:01.950Z,43.07
2023-04-15T17:10:31.369Z,42.90
2023-04-15T17:13:00.251Z,43.75
2023-04-15T17:15:28.588Z,44.21
2023-04-15T17:17:56.712Z,44.67
2023-04-15T17:20:26.569Z,45.37
2023-04-15T17:22:54.792Z,45.23
2023-04-15T17:25:23.265Z,45.62
2023-04-15T17:27:51.444Z,46.32
2023-04-15T17:30:19.751Z,47.48
2023-04-15T17:32:47.911Z,47.95
2023-04-15T17:35:16.489Z,46.55
2023-04-15T17:37:44.542Z,46.75
2023-04-15T17:40:12.922Z,46.75
2023-04-15T17:42:41.612Z,47.61
2023-04-15T17:45:10.504Z,48.90
2023-04-15T17:47:38.629Z,49.51
2023-04-15T17:50:08.092Z,50.20
2023-04-15T17:52:36.060Z,50.53
2023-04-15T17:55:04.735Z,51.05
2023-04-15T17:57:32.902Z,50.35
2023-04-15T18:00:00.980Z,49.39
2023-04-15T18:02:29.163Z,50.60
2023-04-15T18:04:57.672Z,51.62
2023-04-15T18:07:26.017Z,51.99
2023-04-15T18:09:56.073Z,51.98
2023-04-15T18:12:24.227Z,51.59
2023-04-15T18:14:52.993Z,51.93
2023-04-15T18:17:21.255Z,52.90
2023-04-15T18:19:49.339Z,52.66
2023-04-15T18:22:17.822Z,52.66
2023-04-15T18:24:45.853Z,53.15
2023-04-15T18:27:14.273Z,53.08
2023-04-15T18:29:43.778Z,53.97
2023-04-15T18:32:11.758Z,54.66
2023-04-15T18:34:39.960Z,54.43
2023-04-15T18:37:08.099Z,55.01
2023-04-15T18:39:36.166Z,55.11
2023-04-15T18:42:04.346Z,54.66
2023-04-15T18:44:32.549Z,54.90
2023-04-15T18:47:01.530Z,55.53
2023-04-15T18:49:33.290Z,55.67
2023-04-15T18:52:01.279Z,56.27
2023-04-15T18:54:29.313Z,56.51
2023-04-15T18:56:57.480Z,56.71
2023-04-15T18:59:29.280Z,56.68
2023-04-15T19:02:00.284Z,55.68
2023-04-15T19:04:31.348Z,56.64
2023-04-15T19:06:59.806Z,57.57
2023-04-15T19:09:29.511Z,57.79
2023-04-15T19:11:57.792Z,57.92
2023-04-15T19:14:26.065Z,57.92
2023-04-15T19:16:54.387Z,57.28
2023-04-15T19:19:22.569Z,57.67
2023-04-15T19:21:51.171Z,57.62
2023-04-15T19:24:19.889Z,58.38
2023-04-15T19:26:50.415Z,58.76
2023-04-15T19:29:18.931Z,58.90
2023-04-15T19:31:47.172Z,58.64
2023-04-15T19:34:15.464Z,58.92
2023-04-15T19:36:43.529Z,59.51
2023-04-15T19:39:11.800Z,59.64
2023-04-15T19:41:39.872Z,58.91
2023-04-15T19:44:08.158Z,58.44
2023-04-15T19:46:36.242Z,58.98
2023-04-15T19:49:04.744Z,59.61
2023-04-15T19:51:33.148Z,59.61
2023-04-15T19:54:01.485Z,59.72
2023-04-15T19:56:30.393Z,60.19
2023-04-15T19:59:00.100Z,60.13
2023-04-15T20:01:28.354Z,59.70
2023-04-15T20:03:56.593Z,59.23
2023-04-15T20:06:25.200Z,59.96
2023-04-15T20:08:53.263Z,61.28
2023-04-15T20:11:22.375Z,61.73
2023-04-15T20:13:50.365Z,61.69
2023-04-15T20:16:18.333Z,61.69
2023-04-15T20:18:46.475Z,60.64
2023-04-15T20:21:14.399Z,61.36
2023-04-15T20:23:42.709Z,61.92
2023-04-15T20:26:10.801Z,62.77
2023-04-15T20:28:38.967Z,62.63
2023-04-15T20:31:07.124Z,62.49
2023-04-15T20:33:35.083Z,62.82
2023-04-15T20:36:03.178Z,62.67
2023-04-15T20:38:31.358Z,62.89
2023-04-15T20:40:59.515Z,63.01
2023-04-15T20:43:27.594Z,63.41
2023-04-15T20:45:57.537Z,63.34
2023-04-15T20:48:25.964Z,63.65
2023-04-15T20:50:54.279Z,63.49
2023-04-15T20:53:22.649Z,63.23
2023-04-15T20:55:50.654Z,62.72
2023-04-15T20:58:18.699Z,62.38
2023-04-15T21:00:47.333Z,63.05
2023-04-15T21:03:15.697Z,64.37
2023-04-15T21:05:44.130Z,62.51
2023-04-15T21:08:13.025Z,61.63
2023-04-15T21:10:41.515Z,62.84
2023-04-15T21:13:09.884Z,64.10
2023-04-15T21:15:37.984Z,65.59
2023-04-15T21:18:06.041Z,66.03
2023-04-15T21:20:34.111Z,66.44
2023-04-15T21:23:02.173Z,66.43
2023-04-15T21:25:30.451Z,66.68
2023-04-15T21:27:58.434Z,66.97
2023-04-15T21:30:26.587Z,67.15
2023-04-15T21:32:55.999Z,66.81
2023-04-15T21:35:24.090Z,66.81
2023-04-15T21:37:52.137Z,66.59
2023-04-15T21:40:20.317Z,66.68
2023-04-15T21:42:49.414Z,66.90
2023-04-15T21:45:17.687Z,66.88
2023-04-15T21:48:05.455Z,67.06
2023-04-15T21:50:33.896Z,67.11
2023-04-15T21:53:01.968Z,67.53
2023-04-15T21:55:30.274Z,68.06
2023-04-15T21:57:58.218Z,67.99
2023-04-15T22:00:26.287Z,68.39
2023-04-15T22:02:54.403Z,68.25
2023-04-15T22:05:22.733Z,68.39
2023-04-15T22:07:50.801Z,68.01
2023-04-15T22:10:19.808Z,66.54
2023-04-15T22:12:47.876Z,66.49
2023-04-15T22:15:17.086Z,68.48
2023-04-15T22:17:45.246Z,68.96
2023-04-15T22:20:13.935Z,69.09
2023-04-15T22:22:43.941Z,68.71
2023-04-15T22:25:12.830Z,68.68
2023-04-15T22:27:41.114Z,67.57
2023-04-15T22:30:10.716Z,67.59
2023-04-15T22:32:39.134Z,68.01
2023-04-15T22:35:07.844Z,68.21
2023-04-15T22:37:36.160Z,69.16
2023-04-15T22:40:04.744Z,69.51
2023-04-15T22:42:32.925Z,69.42
2023-04-15T22:45:01.111Z,69.17
2023-04-15T22:47:29.494Z,69.49
2023-04-15T22:49:57.645Z,69.49
2023-04-15T22:52:30.542Z,69.57
2023-04-15T22:54:59.799Z,69.44
2023-04-15T22:57:28.775Z,69.38
2023-04-15T22:59:56.899Z,68.91
2023-04-15T23:02:25.389Z,68.45
2023-04-15T23:04:54.037Z,68.43
2023-04-15T23:07:22.238Z,68.61
2023-04-15T23:09:50.724Z,68.40
2023-04-15T23:12:18.813Z,68.52
2023-04-15T23:14:46.864Z,68.65
2023-04-15T23:17:14.944Z,68.59
2023-04-15T23:19:43.016Z,68.83
2023-04-15T23:22:12.303Z,68.88
2023-04-15T23:24:40.598Z,68.81
2023-04-15T23:27:08.764Z,69.14
2023-04-15T23:29:36.824Z,69.49
2023-04-15T23:32:05.363Z,69.85
2023-04-15T23:34:33.688Z,69.91
2023-04-15T23:37:02.046Z,70.26
2023-04-15T23:39:33.114Z,70.07
2023-04-15T23:42:01.280Z,70.44
2023-04-15T23:44:29.353Z,70.59
2023-04-15T23:46:57.420Z,70.61
2023-04-15T23:49:25.805Z,70.62
2023-04-15T23:51:53.984Z,70.52
2023-04-15T23:54:22.053Z,70.41
2023-04-15T23:56:50.252Z,70.67
2023-04-15T23:59:18.305Z,70.86
